Maxdale, Texas
Current Conditions -  °F | °C
As of 4:55 PM on Wednesday 26 Nov 2014 (Local Time) from KILE Reporting Station
Clear Clear  
Wind Chill: 66°   Ceiling: Unl
Heat Index: 66°   Visibility: 10mi
Dew Point: 28°   Wind: 7mph
Humidity: 24%   Direction: 350°N
Pressure: 30.21"   Gusts: NA
Location:  31.0727°N, 97.7358°W
Report Text: KILE 262255Z AUTO 35006KT 10SM CLR 19/M02 A3021 RMK AO1
Loading
Personal Weather Stations






























Interactive Weather Map New forecast layout! Learn more

10-Day Weather Forecast

Advertisements
Track Severe Weather on mobile